WetterOnline ( https://www.wetteronline.de )

Wetter aktuell Gerolstein

Aktuelles Wetter: Nürburg-Barweiler (488m)

6-stündlich | Neueste Meldungen
Ortszeit Temperatur Wetter
So, 26.05. 14:00 17.1° C bedeckt
So, 26.05. 8:00 10.8° C leicht bewölkt
So, 26.05. 2:00 9.2° C wolkenlos
Sa, 25.05. 20:00 13.6° C bedeckt
Sa, 25.05. 14:00 15.9° C leicht bewölkt
Sa, 25.05. 8:00 9.5° C wolkig
Sa, 25.05. 2:00 11.0° C bedeckt
Fr, 24.05. 20:00 17.1° C wolkig
Ortszeit Temperatur Wetter
So, 26.05. 19:30 16.9° C bedeckt
So, 26.05. 19:10 16.8° C bedeckt
So, 26.05. 19:00 16.7° C bedeckt
So, 26.05. 18:50 16.7° C bedeckt
So, 26.05. 18:40 16.7° C bedeckt
So, 26.05. 18:30 16.9° C bedeckt
So, 26.05. 18:00 17.3° C bedeckt
So, 26.05. 17:30 17.5° C bedeckt
So, 26.05. 17:00 18.0° C bedeckt
So, 26.05. 16:30 17.5° C bedeckt
Ortszeit Relative Feuchte Sichtweite
So, 26.05. 14:00 53% 55 km
So, 26.05. 8:00 80% 9 km
So, 26.05. 2:00 88% 13 km
Sa, 25.05. 20:00 72% 26 km
Sa, 25.05. 14:00 55% 30 km
Sa, 25.05. 8:00 63% 28 km
Sa, 25.05. 2:00 65% 40 km
Fr, 24.05. 20:00 51% 60 km
Ortszeit Relative Feuchte Sichtweite
So, 26.05. 19:30 60% 65 km
So, 26.05. 19:10 60% -
So, 26.05. 19:00 60% 65 km
So, 26.05. 18:50 60% -
So, 26.05. 18:40 60% -
So, 26.05. 18:30 59% 65 km
So, 26.05. 18:00 58% 60 km
So, 26.05. 17:30 53% 50 km
So, 26.05. 17:00 55% 65 km
So, 26.05. 16:30 57% 70 km
Ortszeit Niederschlagsmenge Niederschlagsart
So, 26.05. 14:00 0.0 l/m2 in 6 Std. -
So, 26.05. 8:00 0.0 l/m2 in 12 Std. -
So, 26.05. 2:00 0.0 l/m2 in 6 Std. -
Sa, 25.05. 20:00 0.0 l/m2 in 12 Std. -
Sa, 25.05. 14:00 0.0 l/m2 in 6 Std. -
Sa, 25.05. 8:00 0.0 l/m2 in 12 Std. -
Sa, 25.05. 2:00 0.0 l/m2 in 6 Std. -
Fr, 24.05. 20:00 0.0 l/m2 in 12 Std. -
Ortszeit Niederschlagsmenge Niederschlagsart
So, 26.05. 19:30 0.0 l/m2 in 1 Std. -
So, 26.05. 19:10 keine Meldung -
So, 26.05. 19:00 0.0 l/m2 in 1 Std. -
So, 26.05. 18:50 keine Meldung -
So, 26.05. 18:40 keine Meldung -
So, 26.05. 18:30 0.0 l/m2 in 1 Std. -
So, 26.05. 18:00 0.0 l/m2 in 1 Std. -
So, 26.05. 17:30 0.0 l/m2 in 1 Std. -
So, 26.05. 17:00 0.0 l/m2 in 1 Std. -
So, 26.05. 16:30 0.0 l/m2 in 1 Std. -
Ortszeit Stärke Spitze Richtung
km/h Bft. km/h Grad Sektor
So, 26.05. 14:00 13 3 28 250° W
So, 26.05. 8:00 6 1 11 220° SW
So, 26.05. 2:00 7 2 14 200° S
Sa, 25.05. 20:00 7 2 40 340° N
Sa, 25.05. 14:00 18 3 29 10° N
Sa, 25.05. 8:00 4 1 14 350° N
Sa, 25.05. 2:00 7 2 29 350° N
Fr, 24.05. 20:00 7 2 29 350° N
Ortszeit Stärke Spitze Richtung
km/h Bft. km/h Grad Sektor
So, 26.05. 19:30 6 1 11 230° SW
So, 26.05. 19:10 7 2 - 250° W
So, 26.05. 19:00 9 2 19 260° W
So, 26.05. 18:50 9 2 - 260° W
So, 26.05. 18:40 9 2 - 260° W
So, 26.05. 18:30 11 2 18 250° W
So, 26.05. 18:00 11 2 25 250° W
So, 26.05. 17:30 14 3 25 240° SW
So, 26.05. 17:00 13 3 26 250° W
So, 26.05. 16:30 9 2 26 250° W
Ortszeit Untergrenze Bedeckung Gattung
total tief tief mittel hoch
So, 26.05. 14:00 1350 m 8/8 8/8 - - -
So, 26.05. 8:00 7200 m 8/8 0/8 - - -
So, 26.05. 2:00 - 0/8 0/8 - - -
Sa, 25.05. 20:00 1800 m 8/8 8/8 - - -
Sa, 25.05. 14:00 1230 m 4/8 3/8 - - -
Sa, 25.05. 8:00 3300 m 6/8 6/8 - - -
Sa, 25.05. 2:00 6000 m 8/8 8/8 - - -
Fr, 24.05. 20:00 3300 m 5/8 5/8 - - -
Ortszeit Bedeckungsgrad in Achtel und Wolkenuntergrenze
So, 26.05. 19:30 8(1800m)
So, 26.05. 19:10 1(1500m) 8(1800m)
So, 26.05. 19:00 3(1260m) 8(1500m)
So, 26.05. 18:50 3(1260m) 8(1500m)
So, 26.05. 18:40 6(1260m) 8(1500m)
So, 26.05. 18:30 6(1260m) 8(1500m)
So, 26.05. 18:00 1(1350m) 8(1500m)
So, 26.05. 17:30 1(1470m) 8(1800m) 8(1800m)
So, 26.05. 17:00 8(1800m)
So, 26.05. 16:30 8(1800m)
Ortszeit Luftdruck NN (hPa) Tendenz (hPa in 3 Std.)
So, 26.05. 14:00 1015 - 1,0
So, 26.05. 8:00 1017 - 0,2
So, 26.05. 2:00 1018 - 0,5
Sa, 25.05. 20:00 1017 + 0,4
Sa, 25.05. 14:00 1017 - 0,3
Sa, 25.05. 8:00 1017 + 0,6
Sa, 25.05. 2:00 1017 + 0,3
Fr, 24.05. 20:00 1014 - 0,4
Ortszeit Luftdruck NN (hPa) Tendenz (hPa in 3 Std.)
So, 26.05. 19:30 1013 - 1,2
So, 26.05. 19:10 1013 keine Meldung
So, 26.05. 19:00 1013 - 1,3
So, 26.05. 18:50 1013 keine Meldung
So, 26.05. 18:40 1013 keine Meldung
So, 26.05. 18:30 1013 - 1,2
So, 26.05. 18:00 1013 - 1,1
So, 26.05. 17:30 1013 - 1,0
So, 26.05. 17:00 1013 - 0,9
So, 26.05. 16:30 1014 - 0,8
Ortszeit Schneehöhe (cm)
So, 26.05. 14:00 -
So, 26.05. 8:00 -
So, 26.05. 2:00 -
Sa, 25.05. 20:00 -
Sa, 25.05. 14:00 -
Sa, 25.05. 8:00 -
Sa, 25.05. 2:00 -
Fr, 24.05. 20:00 -
Ortszeit Schneehöhe (cm)
So, 26.05. 19:30 -
So, 26.05. 19:10 -
So, 26.05. 19:00 -
So, 26.05. 18:50 -
So, 26.05. 18:40 -
So, 26.05. 18:30 -
So, 26.05. 18:00 -
So, 26.05. 17:30 -
So, 26.05. 17:00 -
So, 26.05. 16:30 -
Link zu dieser Seite / Seite empfehlen

Das Wetter in ...